createdAt,value
2018-12-21T00:01:54.462Z,-1.32
2018-12-21T00:04:27.238Z,-1.28
2018-12-21T00:07:01.761Z,-1.36
2018-12-21T00:09:38.712Z,-1.35
2018-12-21T00:12:17.172Z,-1.34
2018-12-21T00:14:51.615Z,-1.36
2018-12-21T00:17:34.489Z,-1.43
2018-12-21T00:20:12.277Z,-1.38
2018-12-21T00:22:44.901Z,-1.38
2018-12-21T00:25:18.431Z,-1.32
2018-12-21T00:27:49.480Z,-1.30
2018-12-21T00:30:22.313Z,-1.32
2018-12-21T00:33:00.114Z,-1.35
2018-12-21T00:35:38.320Z,-1.25
2018-12-21T00:38:16.752Z,-1.30
2018-12-21T00:40:59.559Z,-1.27
2018-12-21T00:43:37.683Z,-1.37
2018-12-21T00:46:15.816Z,-1.32
2018-12-21T00:48:53.912Z,-1.27
2018-12-21T00:51:30.367Z,-1.28
2018-12-21T00:54:01.795Z,-1.26
2018-12-21T00:56:34.648Z,-1.27
2018-12-21T00:59:07.629Z,-1.47
2018-12-21T01:01:45.379Z,-1.50
2018-12-21T01:04:18.714Z,-1.44
2018-12-21T01:06:53.340Z,-1.36
2018-12-21T01:09:26.838Z,-1.30
2018-12-21T01:12:06.051Z,-1.36
2018-12-21T01:14:39.895Z,-1.35
2018-12-21T01:17:13.165Z,-1.41
2018-12-21T01:19:46.287Z,-1.55
2018-12-21T01:22:23.313Z,-1.49
2018-12-21T01:24:59.796Z,-1.52
2018-12-21T01:27:33.180Z,-1.46
2018-12-21T01:30:06.868Z,-1.43
2018-12-21T01:32:39.526Z,-1.45
2018-12-21T01:35:16.771Z,-1.51
2018-12-21T01:37:51.353Z,-1.51
2018-12-21T01:40:25.112Z,-1.42
2018-12-21T01:42:55.585Z,-1.50
2018-12-21T01:45:28.098Z,-1.38
2018-12-21T01:48:01.524Z,-1.55
2018-12-21T01:50:34.677Z,-1.62
2018-12-21T01:53:08.306Z,-1.70
2018-12-21T01:55:46.380Z,-1.65
2018-12-21T01:58:20.705Z,-1.73
2018-12-21T02:00:54.259Z,-1.84
2018-12-21T02:03:32.295Z,-1.92
2018-12-21T02:06:11.813Z,-2.04
2018-12-21T02:08:45.710Z,-2.09
2018-12-21T02:11:23.564Z,-2.06
2018-12-21T02:13:58.466Z,-2.17
2018-12-21T02:16:35.362Z,-2.17
2018-12-21T02:19:08.356Z,-2.03
2018-12-21T02:21:42.115Z,-2.01
2018-12-21T02:24:21.006Z,-2.00
2018-12-21T02:26:54.869Z,-1.92
2018-12-21T02:29:38.120Z,-1.94
2018-12-21T02:32:15.211Z,-1.98
2018-12-21T02:34:52.484Z,-1.92
2018-12-21T02:37:30.828Z,-1.93
2018-12-21T02:40:11.071Z,-1.99
2018-12-21T02:42:45.412Z,-2.01
2018-12-21T02:45:19.505Z,-2.00
2018-12-21T02:47:56.691Z,-2.02
2018-12-21T02:50:29.870Z,-1.98
2018-12-21T02:53:07.668Z,-1.99
2018-12-21T02:55:40.410Z,-2.00
2018-12-21T02:58:13.639Z,-2.05
2018-12-21T03:00:50.592Z,-2.21
2018-12-21T03:03:24.676Z,-2.28
2018-12-21T03:06:01.923Z,-2.27
2018-12-21T03:08:36.714Z,-2.33
2018-12-21T03:11:09.771Z,-2.46
2018-12-21T03:13:43.462Z,-2.56
2018-12-21T03:16:22.667Z,-2.45
2018-12-21T03:18:56.906Z,-2.41
2018-12-21T03:21:30.582Z,-2.33
2018-12-21T03:24:03.755Z,-2.30
2018-12-21T03:26:42.400Z,-2.36
2018-12-21T03:29:17.187Z,-2.43
2018-12-21T03:31:51.647Z,-2.60
2018-12-21T03:34:28.984Z,-2.62
2018-12-21T03:37:04.625Z,-2.56
2018-12-21T03:39:42.917Z,-2.57
2018-12-21T03:42:17.135Z,-2.61
2018-12-21T03:44:52.533Z,-2.62
2018-12-21T03:47:29.667Z,-2.57
2018-12-21T03:50:02.474Z,-2.56
2018-12-21T03:52:42.715Z,-2.60
2018-12-21T03:55:16.455Z,-2.65
2018-12-21T03:57:50.326Z,-2.57
2018-12-21T04:00:26.240Z,-2.59
2018-12-21T04:02:59.680Z,-2.53
2018-12-21T04:05:30.926Z,-2.52
2018-12-21T04:08:04.533Z,-2.52
2018-12-21T04:10:37.572Z,-2.53
2018-12-21T04:13:10.265Z,-2.51
2018-12-21T04:15:43.862Z,-2.61
2018-12-21T04:18:20.453Z,-2.65
2018-12-21T04:20:54.198Z,-2.62
2018-12-21T04:23:27.723Z,-2.62
2018-12-21T04:26:04.250Z,-2.68
2018-12-21T04:28:47.841Z,-2.71
2018-12-21T04:31:22.139Z,-2.76
2018-12-21T04:33:54.981Z,-2.77
2018-12-21T04:41:33.198Z,-2.85
2018-12-21T04:44:10.588Z,-2.91
2018-12-21T04:46:47.155Z,-2.90
2018-12-21T04:49:25.659Z,-2.92
2018-12-21T04:51:59.591Z,-2.98
2018-12-21T04:54:37.774Z,-3.02
2018-12-21T04:57:09.310Z,-3.09
2018-12-21T04:59:47.093Z,-3.12
2018-12-21T05:02:25.268Z,-3.17
2018-12-21T05:05:03.665Z,-3.26
2018-12-21T05:07:36.524Z,-3.20
2018-12-21T05:10:12.860Z,-3.15
2018-12-21T05:12:45.944Z,-3.15
2018-12-21T05:15:18.927Z,-3.12
2018-12-21T05:17:52.488Z,-3.15
2018-12-21T05:20:25.656Z,-3.10
2018-12-21T05:23:04.285Z,-3.16
2018-12-21T05:25:37.699Z,-3.14
2018-12-21T05:28:10.855Z,-3.16
2018-12-21T05:30:45.418Z,-3.21
2018-12-21T05:33:23.282Z,-3.21
2018-12-21T05:35:56.329Z,-3.21
2018-12-21T05:38:33.426Z,-3.17
2018-12-21T05:41:11.547Z,-3.19
2018-12-21T05:43:44.600Z,-3.20
2018-12-21T05:46:27.037Z,-3.23
2018-12-21T05:49:01.437Z,-3.12
2018-12-21T05:51:34.891Z,-3.10
2018-12-21T05:54:10.130Z,-3.07
2018-12-21T05:56:48.053Z,-3.06
2018-12-21T05:59:24.653Z,-3.07
2018-12-21T06:01:57.681Z,-3.07
2018-12-21T06:04:34.818Z,-3.11
2018-12-21T06:07:07.315Z,-3.10
2018-12-21T06:09:41.114Z,-3.13
2018-12-21T06:12:14.966Z,-3.09
2018-12-21T06:14:51.661Z,-3.12
2018-12-21T06:17:29.706Z,-3.03
2018-12-21T06:20:07.384Z,-3.12
2018-12-21T06:22:41.116Z,-3.06
2018-12-21T06:25:19.102Z,-3.12
2018-12-21T06:27:52.621Z,-3.15
2018-12-21T06:30:33.118Z,-3.18
2018-12-21T06:33:16.756Z,-3.16
2018-12-21T06:36:03.732Z,-3.11
2018-12-21T06:38:42.954Z,-3.08
2018-12-21T06:41:27.179Z,-3.11
2018-12-21T06:44:05.565Z,-3.13
2018-12-21T06:46:43.989Z,-3.08
2018-12-21T06:49:30.807Z,-3.00
2018-12-21T06:52:05.493Z,-3.06
2018-12-21T06:54:43.375Z,-3.03
2018-12-21T06:57:22.559Z,-3.03
2018-12-21T07:00:12.974Z,-2.96
2018-12-21T07:02:55.259Z,-2.87
2018-12-21T07:05:34.623Z,-2.93
2018-12-21T07:08:18.819Z,-2.98
2018-12-21T07:11:02.107Z,-3.04
2018-12-21T07:13:41.728Z,-3.08
2018-12-21T07:16:15.983Z,-3.13
2018-12-21T07:18:53.093Z,-3.12
2018-12-21T07:21:25.951Z,-3.10
2018-12-21T07:23:58.989Z,-3.10
2018-12-21T07:26:32.178Z,-3.07
2018-12-21T07:29:09.499Z,-3.05
2018-12-21T07:31:42.414Z,-3.08
2018-12-21T07:34:18.541Z,-2.99
2018-12-21T07:36:57.927Z,-2.97
2018-12-21T07:39:34.980Z,-2.91
2018-12-21T07:42:07.765Z,-2.89
2018-12-21T07:44:42.143Z,-2.91
2018-12-21T07:47:19.126Z,-2.83
2018-12-21T07:49:53.181Z,-2.68
2018-12-21T07:52:30.945Z,-2.62
2018-12-21T07:55:04.779Z,-2.64
2018-12-21T07:57:35.179Z,-2.61
2018-12-21T08:00:11.205Z,-2.52
2018-12-21T08:02:44.653Z,-2.56
2018-12-21T08:05:18.336Z,-2.48
2018-12-21T08:07:50.672Z,-2.39
2018-12-21T08:10:24.633Z,-2.34
2018-12-21T08:12:56.937Z,-2.24
2018-12-21T08:15:29.498Z,-2.10
2018-12-21T08:18:03.059Z,-2.06
2018-12-21T08:20:35.866Z,-1.99
2018-12-21T08:23:09.180Z,-2.01
2018-12-21T08:25:46.838Z,-1.89
2018-12-21T08:28:17.950Z,-1.67
2018-12-21T08:30:55.328Z,-1.58
2018-12-21T08:33:31.867Z,-1.44
2018-12-21T08:36:04.146Z,-1.37
2018-12-21T08:38:39.172Z,-1.10
2018-12-21T08:41:12.859Z,-1.08
2018-12-21T08:43:45.531Z,-0.98
2018-12-21T08:46:19.512Z,-0.87
2018-12-21T08:48:57.073Z,-0.73
2018-12-21T08:51:30.753Z,-0.71
2018-12-21T08:54:07.376Z,-0.63
2018-12-21T08:56:44.590Z,-0.37
2018-12-21T08:59:20.747Z,-0.44
2018-12-21T09:01:57.006Z,-0.43
2018-12-21T09:04:32.307Z,-0.24
2018-12-21T09:07:05.248Z,-0.24
2018-12-21T09:09:36.578Z,-0.30
2018-12-21T09:12:13.128Z,-0.47
2018-12-21T09:14:45.604Z,-0.45
2018-12-21T09:17:17.929Z,-0.21
2018-12-21T09:19:50.975Z,-0.42
2018-12-21T09:22:23.860Z,-0.56
2018-12-21T09:24:56.892Z,-0.41
2018-12-21T09:27:27.660Z,-0.15
2018-12-21T09:30:08.543Z,-0.19
2018-12-21T09:32:39.254Z,-0.06
2018-12-21T09:35:16.638Z,-0.07
2018-12-21T09:37:47.219Z,-0.25
2018-12-21T09:40:17.631Z,-0.33
2018-12-21T09:42:49.787Z,-0.32
2018-12-21T09:45:22.253Z,-0.37
2018-12-21T09:47:56.041Z,-0.21
2018-12-21T09:50:32.387Z,-0.20
2018-12-21T09:53:05.760Z,-0.31
2018-12-21T09:55:39.320Z,-0.53
2018-12-21T09:58:11.621Z,-0.35
2018-12-21T10:00:44.944Z,-0.19
2018-12-21T10:03:17.899Z,0.10
2018-12-21T10:05:48.962Z,-0.02
2018-12-21T10:08:21.967Z,0.09
2018-12-21T10:10:59.035Z,0.09
2018-12-21T10:13:32.212Z,0.22
2018-12-21T10:16:08.442Z,0.33
2018-12-21T10:18:39.559Z,0.48
2018-12-21T10:21:12.310Z,0.59
2018-12-21T10:23:45.141Z,0.62
2018-12-21T10:26:19.456Z,0.35
2018-12-21T10:28:52.504Z,0.47
2018-12-21T10:31:28.714Z,0.61
2018-12-21T10:34:01.555Z,0.76
2018-12-21T10:36:38.762Z,0.56
2018-12-21T10:39:12.351Z,0.61
2018-12-21T10:41:44.949Z,0.71
2018-12-21T10:44:20.250Z,0.71
2018-12-21T10:46:51.737Z,0.80
2018-12-21T10:49:31.865Z,0.84
2018-12-21T10:52:03.581Z,0.85
2018-12-21T10:54:40.713Z,0.77
2018-12-21T10:57:12.865Z,0.87
2018-12-21T10:59:43.994Z,0.81
2018-12-21T11:02:20.370Z,0.93
2018-12-21T11:04:52.535Z,0.95
2018-12-21T11:07:29.570Z,1.03
2018-12-21T11:10:01.816Z,0.98
2018-12-21T11:12:34.132Z,1.05
2018-12-21T11:15:10.412Z,1.08
2018-12-21T11:17:44.464Z,1.07
2018-12-21T11:20:16.626Z,0.92
2018-12-21T11:22:49.631Z,0.94
2018-12-21T11:25:22.117Z,0.95
2018-12-21T11:27:55.259Z,0.95
2018-12-21T11:30:32.278Z,0.97
2018-12-21T11:33:04.725Z,0.98
2018-12-21T11:35:37.940Z,0.95
2018-12-21T11:38:11.750Z,1.06
2018-12-21T11:40:44.380Z,1.07
2018-12-21T11:43:17.328Z,1.13
2018-12-21T11:45:54.525Z,1.16
2018-12-21T11:48:27.393Z,1.09
2018-12-21T11:50:59.725Z,1.08
2018-12-21T11:53:36.671Z,1.02
2018-12-21T11:56:12.985Z,1.03
2018-12-21T11:58:46.028Z,1.01
2018-12-21T12:01:18.083Z,1.02
2018-12-21T12:03:51.410Z,1.01
2018-12-21T12:06:29.557Z,1.07
2018-12-21T12:09:06.342Z,1.02
2018-12-21T12:11:38.512Z,1.00
2018-12-21T12:14:16.310Z,0.98
2018-12-21T12:16:50.435Z,1.03
2018-12-21T12:19:27.349Z,0.96
2018-12-21T12:22:00.289Z,1.00
2018-12-21T12:24:32.791Z,0.98
2018-12-21T12:27:05.910Z,1.02
2018-12-21T12:29:39.573Z,0.92
2018-12-21T12:32:16.337Z,0.92
2018-12-21T12:34:49.427Z,0.96
2018-12-21T12:37:22.487Z,0.90
2018-12-21T12:39:55.541Z,0.84
2018-12-21T12:42:28.385Z,0.78
2018-12-21T12:45:08.012Z,0.65
2018-12-21T12:47:42.875Z,0.65
2018-12-21T12:50:20.034Z,0.67
2018-12-21T12:52:56.377Z,0.63
2018-12-21T12:55:34.093Z,0.62
2018-12-21T12:58:07.082Z,0.65
2018-12-21T13:00:43.758Z,0.59
2018-12-21T13:13:20.138Z,0.49
2018-12-21T13:15:53.701Z,0.56
2018-12-21T13:18:26.856Z,0.61
2018-12-21T13:20:59.646Z,0.58
2018-12-21T13:23:32.741Z,0.55
2018-12-21T13:26:05.286Z,0.59
2018-12-21T13:28:38.156Z,0.63
2018-12-21T13:31:12.146Z,0.65
2018-12-21T13:33:44.554Z,0.67
2018-12-21T13:36:26.821Z,0.72
2018-12-21T13:39:05.980Z,0.72
2018-12-21T13:41:42.415Z,0.75
2018-12-21T13:44:15.333Z,0.75
2018-12-21T13:46:48.552Z,0.80
2018-12-21T13:49:21.194Z,0.79
2018-12-21T13:51:51.240Z,0.72
2018-12-21T13:54:24.319Z,0.81
2018-12-21T13:56:57.333Z,0.84
2018-12-21T13:59:30.501Z,0.80
2018-12-21T14:02:02.253Z,0.60
2018-12-21T14:04:34.872Z,0.81
2018-12-21T14:07:07.782Z,0.92
2018-12-21T14:09:44.886Z,0.97
2018-12-21T14:12:17.291Z,0.91
2018-12-21T14:14:50.332Z,0.87
2018-12-21T14:17:26.629Z,0.92
2018-12-21T14:19:59.974Z,0.88
2018-12-21T14:22:33.103Z,0.95
2018-12-21T14:25:08.241Z,1.02
2018-12-21T14:27:44.516Z,1.04
2018-12-21T14:30:17.709Z,1.19
2018-12-21T14:32:52.509Z,1.12
2018-12-21T14:35:25.630Z,1.12
2018-12-21T14:37:59.395Z,0.98
2018-12-21T14:40:37.343Z,1.06
2018-12-21T14:43:10.484Z,1.14
2018-12-21T14:45:43.769Z,1.09
2018-12-21T14:48:20.145Z,1.03
2018-12-21T14:50:52.322Z,1.03
2018-12-21T14:53:24.100Z,0.98
2018-12-21T14:55:54.719Z,1.06
2018-12-21T14:58:27.883Z,0.94
2018-12-21T15:01:02.824Z,0.88
2018-12-21T15:03:39.208Z,0.82
2018-12-21T15:06:16.681Z,0.74
2018-12-21T15:08:49.495Z,0.78
2018-12-21T15:11:21.885Z,0.83
2018-12-21T15:13:59.307Z,1.02
2018-12-21T15:16:32.183Z,1.55
2018-12-21T15:19:04.999Z,1.74
2018-12-21T15:21:36.438Z,1.63
2018-12-21T15:24:11.991Z,2.08
2018-12-21T15:26:43.726Z,2.57
2018-12-21T15:29:15.627Z,2.26
2018-12-21T15:31:49.472Z,1.99
2018-12-21T15:34:26.069Z,2.05
2018-12-21T15:36:59.795Z,2.57
2018-12-21T15:39:32.859Z,2.33
2018-12-21T15:42:06.378Z,2.18
2018-12-21T15:44:39.489Z,2.10
2018-12-21T15:47:34.811Z,2.14
2018-12-21T15:50:36.778Z,2.38
2018-12-21T15:53:29.090Z,3.12
2018-12-21T15:56:17.143Z,3.43
2018-12-21T15:59:15.266Z,3.53
2018-12-21T16:01:57.811Z,3.39
2018-12-21T16:04:39.592Z,3.39
2018-12-21T16:07:38.337Z,3.19
2018-12-21T16:10:28.601Z,3.15
2018-12-21T16:13:18.419Z,3.06
2018-12-21T16:15:51.668Z,3.33
2018-12-21T16:18:27.747Z,3.09
2018-12-21T16:21:02.471Z,3.06
2018-12-21T16:31:19.563Z,3.44
2018-12-21T16:33:52.679Z,2.96
2018-12-21T16:36:30.137Z,2.57
2018-12-21T16:39:08.577Z,2.47
2018-12-21T16:41:41.616Z,2.16
2018-12-21T16:44:15.085Z,2.03
2018-12-21T16:46:48.712Z,1.91
2018-12-21T16:49:21.852Z,1.82
2018-12-21T16:51:55.730Z,1.79
2018-12-21T16:54:29.786Z,1.65
2018-12-21T16:57:03.162Z,1.65
2018-12-21T16:59:36.605Z,1.61
2018-12-21T17:02:13.699Z,1.60
2018-12-21T17:04:47.968Z,1.58
2018-12-21T17:07:22.007Z,1.58
2018-12-21T17:09:59.094Z,1.61
2018-12-21T17:12:36.570Z,1.62
2018-12-21T17:15:10.475Z,1.55
2018-12-21T17:17:43.846Z,1.57
2018-12-21T17:20:23.591Z,1.54
2018-12-21T17:22:57.682Z,1.44
2018-12-21T17:25:35.968Z,1.45
2018-12-21T17:28:10.409Z,1.50
2018-12-21T17:30:48.600Z,1.45
2018-12-21T17:33:23.452Z,1.46
2018-12-21T17:35:57.061Z,1.47
2018-12-21T17:38:30.575Z,1.37
2018-12-21T17:41:02.898Z,1.33
2018-12-21T17:43:38.344Z,1.33
2018-12-21T17:46:15.261Z,1.29
2018-12-21T17:48:46.947Z,1.23
2018-12-21T17:51:19.558Z,1.25
2018-12-21T17:53:52.746Z,1.22
2018-12-21T17:56:29.841Z,1.24
2018-12-21T17:59:01.790Z,1.15
2018-12-21T18:01:37.658Z,1.16
2018-12-21T18:04:22.679Z,1.16
2018-12-21T18:07:03.782Z,1.14
2018-12-21T18:09:38.165Z,1.14
2018-12-21T18:12:10.867Z,0.99
2018-12-21T18:14:44.026Z,1.00
2018-12-21T18:17:18.321Z,1.01
2018-12-21T18:19:51.346Z,0.95
2018-12-21T18:22:26.049Z,0.89
2018-12-21T18:25:03.907Z,0.83
2018-12-21T18:27:36.407Z,0.74
2018-12-21T18:30:19.866Z,0.77
2018-12-21T18:32:56.761Z,0.74
2018-12-21T18:35:33.550Z,0.66
2018-12-21T18:38:18.584Z,0.71
2018-12-21T18:40:56.383Z,0.80
2018-12-21T18:43:29.359Z,0.83
2018-12-21T18:46:03.218Z,0.75
2018-12-21T18:48:36.189Z,0.82
2018-12-21T18:51:07.121Z,0.83
2018-12-21T18:53:40.316Z,0.91
2018-12-21T18:56:22.957Z,0.95
2018-12-21T18:58:56.109Z,0.88
2018-12-21T19:01:27.542Z,0.86
2018-12-21T19:04:00.585Z,0.84
2018-12-21T19:06:33.219Z,0.75
2018-12-21T19:09:11.418Z,0.72
2018-12-21T19:11:49.375Z,0.75
2018-12-21T19:14:26.458Z,0.67
2018-12-21T19:16:58.935Z,1.20
2018-12-21T19:19:32.085Z,1.09
2018-12-21T19:22:05.361Z,1.27
2018-12-21T19:24:38.638Z,1.15
2018-12-21T19:27:11.025Z,1.16
2018-12-21T19:29:44.292Z,1.54
2018-12-21T19:32:17.471Z,1.46
2018-12-21T19:34:54.668Z,1.30
2018-12-21T19:37:27.790Z,1.95
2018-12-21T19:40:00.936Z,2.27
2018-12-21T19:42:34.378Z,2.15
2018-12-21T19:45:11.095Z,2.02
2018-12-21T19:47:43.624Z,2.39
2018-12-21T19:50:16.652Z,2.92
2018-12-21T19:52:49.741Z,2.85
2018-12-21T19:57:13.280Z,3.16
2018-12-21T19:59:46.234Z,2.16
2018-12-21T20:02:18.543Z,1.95
2018-12-21T20:04:54.969Z,2.34
2018-12-21T20:07:31.987Z,2.52
2018-12-21T20:10:05.944Z,2.66
2018-12-21T20:12:38.867Z,2.69
2018-12-21T20:15:11.953Z,2.51
2018-12-21T20:17:44.900Z,2.68
2018-12-21T20:20:21.174Z,2.45
2018-12-21T20:22:54.420Z,2.39
2018-12-21T20:25:25.268Z,2.15
2018-12-21T20:28:02.078Z,1.98
2018-12-21T20:30:32.825Z,1.79
2018-12-21T20:33:05.844Z,1.69
2018-12-21T20:35:38.961Z,1.59
2018-12-21T20:38:21.367Z,1.43
2018-12-21T20:40:53.616Z,1.34
2018-12-21T20:43:26.318Z,1.28
2018-12-21T20:46:02.669Z,0.93
2018-12-21T20:48:40.236Z,0.86
2018-12-21T20:51:16.956Z,0.89
2018-12-21T20:53:53.944Z,0.88
2018-12-21T20:56:30.449Z,0.75
2018-12-21T20:59:15.788Z,0.73
2018-12-21T21:01:53.160Z,0.69
2018-12-21T21:04:26.154Z,0.69
2018-12-21T21:07:02.878Z,0.59
2018-12-21T21:09:32.950Z,0.59
2018-12-21T21:12:06.079Z,0.56
2018-12-21T21:14:44.098Z,0.50
2018-12-21T21:17:21.495Z,0.45
2018-12-21T21:19:58.398Z,0.33
2018-12-21T21:22:35.234Z,0.30
2018-12-21T21:25:11.600Z,0.36
2018-12-21T21:27:48.456Z,0.29
2018-12-21T21:30:21.012Z,0.23
2018-12-21T21:32:54.780Z,0.26
2018-12-21T21:35:27.695Z,0.21
2018-12-21T21:38:00.271Z,0.20
2018-12-21T21:40:34.392Z,0.18
2018-12-21T21:43:11.545Z,0.12
2018-12-21T21:45:48.136Z,0.13
2018-12-21T21:48:25.205Z,-0.03
2018-12-21T21:51:01.700Z,0.05
2018-12-21T21:53:35.142Z,0.08
2018-12-21T21:56:07.957Z,-0.13
2018-12-21T21:58:42.102Z,-0.04
2018-12-21T22:01:13.255Z,0.00
2018-12-21T22:03:46.245Z,0.00
2018-12-21T22:06:24.034Z,-0.01
2018-12-21T22:08:54.512Z,-0.10
2018-12-21T22:11:27.916Z,-0.05
2018-12-21T22:14:00.768Z,-0.09
2018-12-21T22:16:33.376Z,-0.07
2018-12-21T22:19:09.525Z,-0.15
2018-12-21T22:21:42.694Z,-0.14
2018-12-21T22:24:12.847Z,-0.27
2018-12-21T22:26:45.240Z,-0.30
2018-12-21T22:29:22.567Z,-0.40
2018-12-21T22:31:56.182Z,-0.45
2018-12-21T22:34:28.647Z,-0.40
2018-12-21T22:37:01.219Z,-0.42
2018-12-21T22:39:34.754Z,-0.45
2018-12-21T22:42:11.254Z,-0.37
2018-12-21T22:44:48.431Z,-0.42
2018-12-21T22:47:21.407Z,-0.57
2018-12-21T22:49:54.295Z,-0.58
2018-12-21T22:52:27.359Z,-0.56
2018-12-21T22:55:01.238Z,-0.55
2018-12-21T22:57:40.723Z,-0.53
2018-12-21T23:00:21.581Z,-0.56
2018-12-21T23:02:57.864Z,-0.55
2018-12-21T23:05:31.266Z,-0.48
2018-12-21T23:08:04.998Z,-0.47
2018-12-21T23:10:37.455Z,-0.51
2018-12-21T23:13:11.496Z,-0.50
2018-12-21T23:15:48.878Z,-0.58
2018-12-21T23:18:21.402Z,-0.70
2018-12-21T23:20:58.777Z,-0.69
2018-12-21T23:23:31.621Z,-0.72
2018-12-21T23:26:04.711Z,-0.72
2018-12-21T23:28:36.981Z,-0.72
2018-12-21T23:31:13.495Z,-0.67
2018-12-21T23:33:46.461Z,-0.70
2018-12-21T23:36:20.239Z,-0.65
2018-12-21T23:38:53.017Z,-0.63
2018-12-21T23:41:27.023Z,-0.61
2018-12-21T23:44:00.321Z,-0.64
2018-12-21T23:46:37.300Z,-0.69
2018-12-21T23:49:14.502Z,-0.66
2018-12-21T23:51:51.160Z,-0.72
2018-12-21T23:54:24.345Z,-0.76
2018-12-21T23:57:03.519Z,-0.79
2018-12-21T23:59:36.805Z,-0.90
